Time;durP1;ratioP1;P1;durP2;ratioP2;P2;SDS_P1;SDS_P2;PMS_P1;PMS_P2;Temp;Humidity;BMP_temperature;BMP_pressure;BME280_temperature;BME280_humidity;BME280_pressure;Samples;Min_cycle;Max_cycle;Signal;HPM_P1;HPM_P2
2021/05/09 00:02:20;;;;;;;21.02;14.70;;;9.90;97.00;;;;;;4937281;29;20027;-72
2021/05/09 00:04:46;;;;;;;21.58;13.40;;;9.80;98.00;;;;;;4935913;29;20029;-72
2021/05/09 00:07:13;;;;;;;26.75;14.05;;;9.80;97.90;;;;;;4937219;29;20065;-72
2021/05/09 00:09:39;;;;;;;21.77;13.68;;;9.80;97.90;;;;;;4936921;29;20024;-72
2021/05/09 00:12:06;;;;;;;23.90;12.75;;;9.80;98.20;;;;;;4937103;29;20020;-72
2021/05/09 00:14:32;;;;;;;19.48;10.60;;;9.70;97.80;;;;;;4936933;29;20020;-72
2021/05/09 00:16:58;;;;;;;17.27;9.45;;;9.70;96.80;;;;;;4937080;29;20031;-72
2021/05/09 00:19:23;;;;;;;13.23;9.05;;;9.70;96.30;;;;;;4936400;29;20038;-71
2021/05/09 00:21:50;;;;;;;17.52;9.43;;;9.80;96.50;;;;;;4936488;29;20035;-72
2021/05/09 00:24:16;;;;;;;18.10;10.77;;;9.80;96.70;;;;;;4937451;29;20474;-72
2021/05/09 00:26:42;;;;;;;22.42;11.68;;;9.80;97.50;;;;;;4937056;29;20083;-72
2021/05/09 00:29:08;;;;;;;19.52;12.27;;;9.70;97.40;;;;;;4936777;29;20415;-72
2021/05/09 00:31:34;;;;;;;19.20;11.35;;;9.50;97.60;;;;;;4936822;29;20106;-72
2021/05/09 00:34:00;;;;;;;20.30;11.90;;;9.50;98.10;;;;;;4936593;29;20114;-72
2021/05/09 00:36:26;;;;;;;21.23;12.40;;;9.40;98.30;;;;;;4936480;29;20027;-72
2021/05/09 00:38:52;;;;;;;18.98;12.25;;;9.50;98.20;;;;;;4936294;29;20058;-72
2021/05/09 00:41:19;;;;;;;19.90;12.13;;;9.40;98.30;;;;;;4937280;29;20051;-72
2021/05/09 00:43:46;;;;;;;17.75;12.30;;;9.30;98.20;;;;;;4936512;29;20526;-72
2021/05/09 00:46:12;;;;;;;20.77;12.25;;;9.40;99.00;;;;;;4935733;29;20028;-71
2021/05/09 00:48:38;;;;;;;20.48;11.93;;;9.50;98.60;;;;;;4936545;29;20028;-71
2021/05/09 00:51:04;;;;;;;18.75;11.73;;;9.40;98.70;;;;;;4936230;29;20098;-72
2021/05/09 00:53:31;;;;;;;17.13;11.85;;;9.50;99.00;;;;;;4948558;29;20055;-72
2021/05/09 00:56:00;;;;;;;19.55;11.77;;;9.40;99.10;;;;;;4938264;29;20039;-72
2021/05/09 00:58:27;;;;;;;22.65;12.15;;;9.50;99.30;;;;;;4938305;29;20104;-72
2021/05/09 01:00:53;;;;;;;19.50;11.80;;;9.50;99.60;;;;;;4955427;29;20023;-72
2021/05/09 01:03:26;;;;;;;19.80;11.77;;;9.50;99.20;;;;;;4955476;29;20058;-72
2021/05/09 01:05:56;;;;;;;21.60;11.68;;;9.40;99.10;;;;;;4955673;29;20118;-72
2021/05/09 01:08:22;;;;;;;23.67;11.98;;;9.20;99.10;;;;;;4955303;29;20034;-72
2021/05/09 01:10:49;;;;;;;18.65;11.32;;;9.30;99.80;;;;;;4938283;29;20035;-72
2021/05/09 01:13:16;;;;;;;17.23;11.00;;;9.30;99.60;;;;;;4955653;29;20026;-72
2021/05/09 01:15:42;;;;;;;18.90;11.68;;;9.30;99.30;;;;;;4938224;29;20020;-73
2021/05/09 01:18:08;;;;;;;19.25;11.55;;;9.30;99.70;;;;;;4955519;29;20029;-72
2021/05/09 01:20:36;;;;;;;20.13;10.93;;;9.30;99.90;;;;;;4955456;29;20433;-71
2021/05/09 01:23:03;;;;;;;19.33;10.82;;;9.30;99.80;;;;;;4955445;29;20023;-72
2021/05/09 01:25:29;;;;;;;19.20;10.95;;;9.30;99.60;;;;;;4955136;29;20082;-72
2021/05/09 01:27:57;;;;;;;17.25;10.93;;;9.40;99.40;;;;;;4955437;29;20023;-72
2021/05/09 01:30:24;;;;;;;18.38;11.55;;;9.40;99.30;;;;;;4954989;29;20082;-72
2021/05/09 01:32:51;;;;;;;18.55;11.13;;;9.30;98.80;;;;;;4955326;29;20374;-71
2021/05/09 01:35:17;;;;;;;17.52;9.93;;;9.30;99.30;;;;;;4958154;28;20047;-72
2021/05/09 01:37:44;;;;;;;17.35;10.40;;;9.30;99.50;;;;;;4958945;29;20086;-72
2021/05/09 01:40:13;;;;;;;17.75;9.90;;;9.30;99.20;;;;;;4958927;29;20054;-72
2021/05/09 01:42:40;;;;;;;18.70;9.85;;;9.10;99.10;;;;;;4941979;29;20034;-72
2021/05/09 01:45:08;;;;;;;15.85;9.85;;;9.10;99.40;;;;;;4958710;29;20062;-72
2021/05/09 01:47:36;;;;;;;15.73;9.50;;;9.10;99.90;;;;;;4958649;29;20035;-71
2021/05/09 01:50:15;;;;;;;15.90;8.80;;;9.20;99.80;;;;;;4958756;29;20073;-72
2021/05/09 01:52:42;;;;;;;15.88;9.43;;;9.10;99.30;;;;;;4958476;29;20063;-72
2021/05/09 01:55:15;;;;;;;13.93;8.40;;;9.00;98.90;;;;;;4958893;29;20035;-73
2021/05/09 01:57:41;;;;;;;16.03;9.53;;;8.90;99.30;;;;;;4958672;29;20098;-72
2021/05/09 02:00:13;;;;;;;14.23;8.82;;;8.90;99.90;;;;;;4958416;29;20023;-72
2021/05/09 02:02:39;;;;;;;16.05;9.10;;;9.00;99.90;;;;;;4957726;29;20474;-72
2021/05/09 02:05:06;;;;;;;15.00;8.95;;;9.00;99.70;;;;;;4941039;29;20031;-72
2021/05/09 02:07:33;;;;;;;15.13;8.57;;;8.90;99.90;;;;;;4958330;29;20374;-72
2021/05/09 02:10:01;;;;;;;15.27;9.20;;;9.00;99.60;;;;;;4958062;29;20429;-71
2021/05/09 02:12:27;;;;;;;13.35;8.52;;;9.00;99.90;;;;;;4958196;29;20027;-72
2021/05/09 02:14:53;;;;;;;14.77;8.80;;;9.00;99.70;;;;;;4941514;29;20030;-72
2021/05/09 02:17:20;;;;;;;13.30;8.85;;;8.90;99.50;;;;;;4958177;29;20023;-71
2021/05/09 02:19:46;;;;;;;15.43;9.00;;;8.90;99.70;;;;;;4958515;29;20027;-72
2021/05/09 02:22:13;;;;;;;14.68;9.02;;;8.70;99.80;;;;;;4957913;29;20078;-72
2021/05/09 02:24:39;;;;;;;12.90;8.55;;;8.80;99.90;;;;;;4958242;29;20070;-72
2021/05/09 02:27:05;;;;;;;13.38;8.38;;;8.80;99.90;;;;;;4958444;29;20039;-72
2021/05/09 02:29:31;;;;;;;14.82;8.23;;;8.80;99.80;;;;;;4958495;29;20020;-71
2021/05/09 02:31:57;;;;;;;15.05;8.52;;;8.90;99.90;;;;;;4957645;29;20024;-72
2021/05/09 02:34:23;;;;;;;13.07;8.63;;;8.80;99.90;;;;;;4958132;29;20023;-72
2021/05/09 02:36:49;;;;;;;14.68;9.10;;;8.90;99.90;;;;;;4957921;29;20485;-72
2021/05/09 02:39:15;;;;;;;14.20;8.50;;;8.90;99.90;;;;;;4958081;29;20024;-72
2021/05/09 02:41:43;;;;;;;14.95;9.10;;;8.80;99.90;;;;;;4957740;29;20061;-72
2021/05/09 02:44:09;;;;;;;15.50;9.13;;;8.80;99.80;;;;;;4957624;29;20102;-72
2021/05/09 02:46:35;;;;;;;17.30;9.70;;;8.80;99.70;;;;;;4956206;28;20027;-72
2021/05/09 02:49:02;;;;;;;15.95;8.70;;;8.80;99.50;;;;;;4957734;29;20107;-72
2021/05/09 02:51:28;;;;;;;16.95;9.15;;;8.80;99.60;;;;;;4957681;29;20030;-73
2021/05/09 02:53:54;;;;;;;15.95;9.23;;;8.80;99.90;;;;;;4957046;29;20039;-72
2021/05/09 02:56:20;;;;;;;15.70;9.35;;;8.80;99.90;;;;;;4957364;29;20019;-72
2021/05/09 02:58:46;;;;;;;16.33;9.88;;;8.70;99.90;;;;;;4957515;29;20114;-72
2021/05/09 03:01:12;;;;;;;15.98;9.52;;;8.70;99.90;;;;;;4957307;29;20474;-72
2021/05/09 03:03:38;;;;;;;14.82;9.77;;;8.70;99.90;;;;;;4957207;29;20031;-72
2021/05/09 03:06:04;;;;;;;16.83;11.10;;;8.70;99.90;;;;;;4957307;29;20033;-72
2021/05/09 03:08:30;;;;;;;20.05;13.82;;;8.70;99.90;;;;;;4957384;29;20031;-73
2021/05/09 03:10:56;;;;;;;29.98;23.15;;;8.60;99.90;;;;;;4957774;29;20027;-72
2021/05/09 03:13:22;;;;;;;31.92;22.35;;;8.60;99.90;;;;;;4957194;29;20039;-72
2021/05/09 03:15:48;;;;;;;32.38;24.35;;;8.60;99.90;;;;;;4940006;29;20387;-72
2021/05/09 03:18:14;;;;;;;34.38;27.30;;;8.60;99.90;;;;;;4957274;29;20055;-72
2021/05/09 03:20:40;;;;;;;31.38;23.58;;;8.50;99.90;;;;;;4956769;29;20378;-71
2021/05/09 03:23:06;;;;;;;26.33;18.73;;;8.50;99.90;;;;;;4956503;29;20102;-72
2021/05/09 03:25:32;;;;;;;22.50;12.73;;;8.40;99.90;;;;;;4956962;29;20035;-72
2021/05/09 03:27:59;;;;;;;15.55;10.32;;;8.50;99.90;;;;;;4957253;29;20106;-71
2021/05/09 03:30:25;;;;;;;16.63;9.52;;;8.40;99.90;;;;;;4957001;29;20070;-71
2021/05/09 03:32:54;;;;;;;17.60;9.57;;;8.40;99.90;;;;;;4939591;29;20039;-72
2021/05/09 03:35:21;;;;;;;17.17;9.60;;;8.20;99.90;;;;;;4939713;29;20027;-71
2021/05/09 03:37:47;;;;;;;15.57;9.20;;;8.10;99.90;;;;;;4956692;29;20110;-71
2021/05/09 03:40:14;;;;;;;14.38;9.32;;;8.10;99.90;;;;;;4956896;29;20506;-72
2021/05/09 03:42:40;;;;;;;19.15;9.60;;;8.20;99.90;;;;;;4956532;29;20066;-72
2021/05/09 03:45:07;;;;;;;17.45;9.55;;;8.20;99.90;;;;;;4956519;29;20102;-72
2021/05/09 03:47:35;;;;;;;15.85;9.52;;;8.30;99.90;;;;;;4956616;29;20107;-72
2021/05/09 03:50:02;;;;;;;14.43;9.23;;;8.30;99.90;;;;;;4956661;29;20030;-72
2021/05/09 03:52:28;;;;;;;12.85;8.15;;;8.40;99.90;;;;;;4956176;29;20051;-72
2021/05/09 03:54:54;;;;;;;12.95;7.80;;;8.50;99.90;;;;;;4955747;29;20686;-71
2021/05/09 03:57:20;;;;;;;16.15;7.93;;;8.50;99.80;;;;;;4955427;28;20374;-72
2021/05/09 03:59:46;;;;;;;15.98;8.57;;;8.60;99.70;;;;;;4939070;29;20035;-71
2021/05/09 04:02:12;;;;;;;14.18;9.13;;;8.70;99.90;;;;;;4956305;29;20030;-72
2021/05/09 04:04:38;;;;;;;12.57;8.77;;;8.80;99.60;;;;;;4956652;29;20078;-72
2021/05/09 04:07:04;;;;;;;12.55;7.88;;;8.80;99.20;;;;;;4955844;29;20051;-72
2021/05/09 04:09:30;;;;;;;14.00;7.75;;;8.80;98.90;;;;;;4956446;29;20023;-71
2021/05/09 04:11:56;;;;;;;14.00;7.95;;;8.90;98.80;;;;;;4956211;29;20094;-72
2021/05/09 04:14:22;;;;;;;10.93;7.32;;;8.90;98.30;;;;;;4956113;29;20074;-72
2021/05/09 04:16:48;;;;;;;11.05;8.02;;;9.00;98.70;;;;;;4955962;29;20490;-72
2021/05/09 04:19:14;;;;;;;12.63;7.47;;;9.00;98.70;;;;;;4938859;29;20438;-72
2021/05/09 04:21:40;;;;;;;10.93;7.57;;;9.10;98.40;;;;;;4956115;29;20023;-72
2021/05/09 04:24:08;;;;;;;10.10;7.57;;;9.10;98.40;;;;;;4955768;29;20032;-72
2021/05/09 04:26:34;;;;;;;10.48;7.40;;;9.20;97.90;;;;;;4956288;29;20034;-73
2021/05/09 04:29:00;;;;;;;12.52;7.43;;;9.30;97.90;;;;;;4955918;29;20573;-72
2021/05/09 04:31:26;;;;;;;11.93;6.97;;;9.30;97.70;;;;;;4955737;29;20030;-72
2021/05/09 04:33:52;;;;;;;10.80;7.10;;;9.40;97.30;;;;;;4955718;29;20023;-72
2021/05/09 04:36:18;;;;;;;10.95;7.40;;;9.40;97.10;;;;;;4955835;29;20031;-72
2021/05/09 04:38:44;;;;;;;12.95;7.45;;;9.50;97.00;;;;;;4955537;29;20027;-72
2021/05/09 04:41:10;;;;;;;12.77;7.18;;;9.60;96.60;;;;;;4938294;29;20031;-72
2021/05/09 04:43:37;;;;;;;13.30;7.55;;;9.60;96.70;;;;;;4955804;29;20154;-71
2021/05/09 04:46:03;;;;;;;11.82;7.53;;;9.70;97.00;;;;;;4955703;29;20121;-72
2021/05/09 04:48:29;;;;;;;12.70;8.00;;;9.90;96.60;;;;;;4955604;29;20102;-71
2021/05/09 04:50:55;;;;;;;12.65;7.47;;;;;;;;;;4955388;29;20030;-70
2021/05/09 04:53:30;;;;;;;16.27;9.27;;;10.00;95.70;;;;;;4955074;29;20163;-72
2021/05/09 04:55:58;;;;;;;17.02;11.07;;;10.00;96.10;;;;;;4956113;29;20038;-72
2021/05/09 04:58:25;;;;;;;18.88;11.73;;;10.10;96.40;;;;;;4955470;29;20030;-72
2021/05/09 05:00:53;;;;;;;22.33;15.25;;;10.20;96.50;;;;;;4938306;29;20024;-72
2021/05/09 05:03:20;;;;;;;19.02;14.27;;;10.30;96.80;;;;;;4955813;29;20026;-72
2021/05/09 05:05:47;;;;;;;14.65;10.30;;;10.40;96.30;;;;;;4955227;29;20422;-73
2021/05/09 05:08:13;;;;;;;14.63;8.38;;;10.50;95.80;;;;;;4955541;28;20110;-73
2021/05/09 05:10:39;;;;;;;13.68;8.35;;;10.40;94.70;;;;;;4958938;29;20445;-72
2021/05/09 05:13:23;;;;;;;13.63;7.30;;;10.50;95.40;;;;;;4959586;29;20386;-71
2021/05/09 05:15:51;;;;;;;12.85;7.78;;;10.60;95.20;;;;;;4959399;29;20473;-72
2021/05/09 05:18:17;;;;;;;10.63;7.05;;;10.70;94.20;;;;;;4959479;29;20378;-72
2021/05/09 05:20:44;;;;;;;11.95;7.60;;;10.80;94.60;;;;;;4959069;29;20051;-72
2021/05/09 05:23:12;;;;;;;14.65;8.90;;;10.90;94.40;;;;;;4959112;29;20019;-71
2021/05/09 05:25:39;;;;;;;14.98;9.38;;;11.00;94.50;;;;;;4959332;29;20031;-72
2021/05/09 05:28:05;;;;;;;15.70;9.15;;;11.10;95.00;;;;;;4959257;29;20047;-72
2021/05/09 05:30:33;;;;;;;15.52;10.00;;;11.20;95.50;;;;;;4959191;29;20031;-72
2021/05/09 05:32:59;;;;;;;15.02;10.90;;;11.40;95.10;;;;;;4941883;29;20447;-73
2021/05/09 05:35:29;;;;;;;15.82;10.82;;;11.50;95.20;;;;;;4959488;29;20098;-72
2021/05/09 05:37:56;;;;;;;14.43;11.93;;;11.70;95.20;;;;;;4941718;29;20071;-72
2021/05/09 05:40:26;;;;;;;15.85;11.57;;;11.80;95.40;;;;;;4958932;29;20371;-72
2021/05/09 05:42:53;;;;;;;16.05;11.65;;;11.90;95.50;;;;;;4959055;29;20035;-72
2021/05/09 05:45:20;;;;;;;13.63;10.07;;;11.90;94.90;;;;;;4958549;29;20557;-71
2021/05/09 05:47:46;;;;;;;11.68;8.70;;;12.00;94.50;;;;;;4958515;29;20031;-72
2021/05/09 05:50:13;;;;;;;10.65;8.48;;;12.00;94.70;;;;;;4958645;29;20019;-73
2021/05/09 05:52:39;;;;;;;11.40;8.70;;;12.10;94.80;;;;;;4958342;29;20541;-71
2021/05/09 05:55:06;;;;;;;11.00;7.68;;;12.20;94.50;;;;;;4958627;29;20023;-73
2021/05/09 05:57:32;;;;;;;10.43;8.07;;;12.30;94.40;;;;;;4958668;29;20043;-73
2021/05/09 05:59:57;;;;;;;10.82;7.95;;;12.40;94.10;;;;;;4958536;29;20019;-73
2021/05/09 06:02:23;;;;;;;10.88;7.53;;;12.50;94.30;;;;;;4958745;29;20019;-72
2021/05/09 06:04:49;;;;;;;11.82;7.50;;;12.70;94.10;;;;;;4958334;29;20031;-72
2021/05/09 06:07:15;;;;;;;11.98;8.13;;;12.90;94.00;;;;;;4941143;29;20118;-72
2021/05/09 06:09:42;;;;;;;15.68;9.80;;;12.90;93.80;;;;;;4958309;29;20059;-72
2021/05/09 06:12:08;;;;;;;12.85;9.52;;;13.20;93.70;;;;;;4958533;29;20030;-72
2021/05/09 06:14:34;;;;;;;12.80;9.07;;;13.30;93.30;;;;;;4958144;29;20094;-71
2021/05/09 06:17:00;;;;;;;11.30;7.85;;;13.50;92.40;;;;;;4958476;29;20023;-72
2021/05/09 06:19:26;;;;;;;13.02;9.13;;;13.70;92.80;;;;;;4957886;28;20520;-72
2021/05/09 06:21:53;;;;;;;12.98;8.57;;;13.70;93.10;;;;;;4957977;29;20024;-72
2021/05/09 06:24:19;;;;;;;14.40;8.00;;;13.90;92.70;;;;;;4957791;29;20027;-71
2021/05/09 06:26:45;;;;;;;10.57;7.88;;;14.10;92.60;;;;;;4940973;29;20023;-72
2021/05/09 06:29:12;;;;;;;11.55;7.90;;;;;;;;;;4957857;29;20019;-71
2021/05/09 06:31:38;;;;;;;14.50;8.02;;;14.60;90.90;;;;;;4958014;29;20419;-71
2021/05/09 06:34:04;;;;;;;15.05;7.95;;;14.50;89.60;;;;;;4958203;29;20367;-70
2021/05/09 06:36:30;;;;;;;12.52;7.95;;;14.60;88.00;;;;;;4957819;29;20054;-72
2021/05/09 06:38:56;;;;;;;16.20;10.73;;;;;;;;;;4957692;29;20023;-72
2021/05/09 06:41:22;;;;;;;12.73;7.32;;;14.80;83.40;;;;;;4957722;29;20035;-73
2021/05/09 06:43:54;;;;;;;13.20;7.35;;;14.90;82.50;;;;;;4957581;29;20489;-73
2021/05/09 06:46:20;;;;;;;15.40;8.38;;;14.90;80.10;;;;;;4957934;29;20158;-73
2021/05/09 06:48:46;;;;;;;18.52;9.32;;;15.10;80.20;;;;;;4956962;29;20102;-72
2021/05/09 06:51:11;;;;;;;13.93;7.32;;;15.20;80.30;;;;;;4957182;29;20027;-72
2021/05/09 06:53:37;;;;;;;13.02;6.60;;;15.30;78.40;;;;;;4933316;29;20048;-71
2021/05/09 06:56:03;;;;;;;13.35;7.72;;;15.30;76.20;;;;;;4919538;29;20379;-72
2021/05/09 06:58:30;;;;;;;13.68;6.93;;;15.40;73.90;;;;;;4919063;29;20035;-71
2021/05/09 07:00:57;;;;;;;12.55;6.10;;;15.50;77.90;;;;;;4919073;29;20042;-71
2021/05/09 07:03:23;;;;;;;11.27;5.40;;;15.60;73.00;;;;;;4919086;29;20456;-72
2021/05/09 07:05:49;;;;;;;12.30;6.00;;;15.80;75.40;;;;;;4919138;29;20123;-70
2021/05/09 07:08:14;;;;;;;14.07;6.32;;;15.80;72.70;;;;;;4918895;29;20072;-70
2021/05/09 07:10:40;;;;;;;11.40;6.03;;;15.80;71.30;;;;;;4918768;29;20043;-76
2021/05/09 07:13:06;;;;;;;14.10;6.47;;;16.00;71.40;;;;;;4918831;29;20379;-73
2021/05/09 07:15:35;;;;;;;11.98;6.25;;;16.10;71.30;;;;;;4918835;29;20056;-68
2021/05/09 07:18:07;;;;;;;13.85;6.78;;;16.30;71.40;;;;;;4918600;29;20035;-68
2021/05/09 07:20:34;;;;;;;13.95;6.30;;;16.40;71.70;;;;;;4926468;29;20031;-70
2021/05/09 07:23:01;;;;;;;13.93;6.50;;;16.50;69.60;;;;;;4926897;29;20044;-67
2021/05/09 07:25:27;;;;;;;12.18;6.40;;;16.50;69.80;;;;;;4926421;29;20036;-68
2021/05/09 07:27:53;;;;;;;12.55;6.28;;;16.70;70.60;;;;;;4923747;29;20028;-69
2021/05/09 07:30:20;;;;;;;11.60;6.50;;;16.90;69.20;;;;;;4926135;29;20035;-71
2021/05/09 07:32:46;;;;;;;12.23;6.57;;;16.90;69.40;;;;;;4928275;29;20415;-69
2021/05/09 07:35:13;;;;;;;11.00;6.55;;;17.10;68.70;;;;;;4925713;29;20503;-68
2021/05/09 07:37:40;;;;;;;10.68;5.68;;;17.10;67.00;;;;;;4926335;29;20028;-68
2021/05/09 07:40:07;;;;;;;13.20;6.22;;;17.20;66.70;;;;;;4936451;29;20026;-70
2021/05/09 07:42:42;;;;;;;9.05;5.45;;;17.40;66.00;;;;;;4938913;29;20020;-70
2021/05/09 07:45:14;;;;;;;10.60;5.68;;;;;;;;;;4937088;29;20040;-71
2021/05/09 07:47:41;;;;;;;13.15;6.00;;;17.50;63.70;;;;;;4938525;29;20028;-72
2021/05/09 07:50:08;;;;;;;13.30;6.88;;;17.70;68.50;;;;;;4936379;29;20032;-72
2021/05/09 07:52:34;;;;;;;11.07;6.40;;;18.00;67.50;;;;;;4946864;28;20038;-72
2021/05/09 07:55:02;;;;;;;8.70;5.38;;;;;;;;;;4958211;28;20018;-70
2021/05/09 07:57:28;;;;;;;10.27;5.50;;;18.30;66.20;;;;;;4975584;28;20031;-68
2021/05/09 07:59:54;;;;;;;10.88;6.35;;;18.60;66.10;;;;;;4975788;28;20073;-70
2021/05/09 08:02:20;;;;;;;11.65;5.72;;;18.60;67.20;;;;;;4975461;28;20019;-69
2021/05/09 08:04:47;;;;;;;12.57;5.43;;;18.40;63.10;;;;;;4975602;28;20034;-72
2021/05/09 08:07:13;;;;;;;13.48;5.05;;;18.60;63.00;;;;;;4975605;28;20496;-71
2021/05/09 08:09:39;;;;;;;13.60;5.40;;;;;;;;;;4957819;28;20429;-71
2021/05/09 08:12:06;;;;;;;9.45;5.10;;;19.10;62.60;;;;;;4975484;28;20026;-70
2021/05/09 08:14:32;;;;;;;9.23;4.60;;;19.20;58.90;;;;;;4975198;28;20157;-71
2021/05/09 08:16:58;;;;;;;11.68;4.55;;;19.10;59.20;;;;;;4975289;28;20102;-70
2021/05/09 08:19:24;;;;;;;8.32;4.10;;;19.20;58.50;;;;;;4957933;28;20125;-70
2021/05/09 08:21:50;;;;;;;8.32;4.05;;;19.30;59.30;;;;;;4975234;28;20066;-69
2021/05/09 08:24:17;;;;;;;10.98;4.18;;;19.20;58.30;;;;;;4974808;28;20034;-70
2021/05/09 08:26:43;;;;;;;9.23;4.38;;;19.40;58.10;;;;;;4975231;28;20019;-70
2021/05/09 08:29:09;;;;;;;7.43;4.30;;;19.30;56.80;;;;;;4974976;28;20489;-68
2021/05/09 08:31:36;;;;;;;7.43;3.75;;;19.50;57.40;;;;;;4975291;28;20027;-70
2021/05/09 08:34:02;;;;;;;6.53;3.80;;;19.50;56.60;;;;;;4975800;28;20405;-72
2021/05/09 08:36:28;;;;;;;8.00;4.43;;;19.50;56.90;;;;;;4975262;28;20073;-69
2021/05/09 08:38:54;;;;;;;8.88;3.90;;;19.40;58.70;;;;;;4975275;28;20030;-70
2021/05/09 08:41:21;;;;;;;6.22;3.22;;;19.40;56.90;;;;;;4975663;28;20043;-69
2021/05/09 08:43:47;;;;;;;6.78;3.08;;;19.70;56.60;;;;;;4975191;28;20557;-68
2021/05/09 08:46:14;;;;;;;6.70;3.63;;;19.60;55.80;;;;;;4975685;28;20581;-72
2021/05/09 08:48:41;;;;;;;7.03;3.47;;;19.70;56.60;;;;;;4975814;28;20548;-70
2021/05/09 08:51:07;;;;;;;5.80;3.40;;;19.90;55.60;;;;;;4975139;28;20018;-70
2021/05/09 08:53:33;;;;;;;5.95;3.33;;;19.80;55.10;;;;;;4974862;28;20054;-70
2021/05/09 08:55:59;;;;;;;5.93;3.08;;;20.10;56.30;;;;;;4975040;28;20373;-70
2021/05/09 08:58:25;;;;;;;9.45;6.32;;;20.10;54.00;;;;;;4975087;28;20019;-69
2021/05/09 09:00:51;;;;;;;5.72;3.80;;;20.10;55.80;;;;;;4974901;28;20019;-69
2021/05/09 09:03:18;;;;;;;6.05;3.47;;;20.30;56.00;;;;;;4975338;28;20401;-69
2021/05/09 09:05:45;;;;;;;9.70;3.50;;;;;;;;;;4974907;28;20105;-70
2021/05/09 09:08:14;;;;;;;5.25;3.47;;;20.90;52.30;;;;;;4975557;28;20023;-71
2021/05/09 09:10:45;;;;;;;8.27;3.83;;;20.70;53.70;;;;;;4957499;28;20077;-70
2021/05/09 09:13:29;;;;;;;6.00;3.60;;;20.90;52.90;;;;;;4974893;28;20023;-71
2021/05/09 09:16:06;;;;;;;8.23;3.00;;;20.90;54.10;;;;;;4974794;28;20039;-71
2021/05/09 09:18:46;;;;;;;6.05;3.10;;;21.20;54.60;;;;;;4956302;28;20032;-68
2021/05/09 09:21:21;;;;;;;8.05;2.97;;;21.20;52.10;;;;;;4955343;29;20046;-68
2021/05/09 09:23:49;;;;;;;8.18;3.80;;;21.50;52.40;;;;;;4955497;29;20027;-72
2021/05/09 09:26:40;;;;;;;7.18;3.10;;;21.40;53.10;;;;;;4955299;29;20486;-68
2021/05/09 09:29:36;;;;;;;6.63;3.70;;;21.60;52.70;;;;;;4955257;29;20418;-67
2021/05/09 09:32:08;;;;;;;7.28;3.88;;;21.70;53.50;;;;;;4955706;29;20027;-67
2021/05/09 09:34:39;;;;;;;9.00;4.20;;;21.90;53.00;;;;;;4963343;28;20030;-69
2021/05/09 09:37:06;;;;;;;7.78;3.70;;;21.80;50.10;;;;;;4974672;28;20030;-67
2021/05/09 09:39:46;;;;;;;9.35;4.00;;;21.80;52.10;;;;;;4957467;28;20481;-67
2021/05/09 09:42:13;;;;;;;10.93;3.83;;;21.90;51.30;;;;;;4974387;28;20112;-69
2021/05/09 09:44:39;;;;;;;8.32;3.85;;;21.80;50.30;;;;;;4964289;28;20560;-67
2021/05/09 09:47:05;;;;;;;9.13;3.50;;;21.70;51.30;;;;;;4965180;28;20038;-67
2021/05/09 09:49:36;;;;;;;7.07;3.30;;;21.70;50.70;;;;;;4960864;28;20024;-67
2021/05/09 09:52:29;;;;;;;6.30;3.20;;;21.80;51.70;;;;;;4965094;28;20023;-67
2021/05/09 09:54:54;;;;;;;5.47;2.70;;;22.10;50.60;;;;;;4860310;29;20053;-67
2021/05/09 09:57:20;;;;;;;7.78;3.50;;;22.20;50.50;;;;;;4886645;29;20531;-68
2021/05/09 10:00:17;;;;;;;7.07;3.58;;;22.40;49.00;;;;;;4884451;29;20502;-71
2021/05/09 10:02:44;;;;;;;6.18;3.38;;;22.60;49.70;;;;;;4900683;29;20575;-71
2021/05/09 10:05:11;;;;;;;5.97;3.20;;;22.90;48.20;;;;;;4883710;29;20048;-70
2021/05/09 10:07:38;;;;;;;6.18;3.13;;;22.90;48.70;;;;;;4880229;29;20029;-69
2021/05/09 10:10:04;;;;;;;4.95;2.67;;;22.90;49.60;;;;;;4879028;29;20036;-67
2021/05/09 10:12:30;;;;;;;5.43;2.45;;;22.80;47.50;;;;;;4880107;29;20037;-68
2021/05/09 10:14:56;;;;;;;5.32;2.50;;;23.20;46.80;;;;;;4881631;29;20037;-67
2021/05/09 10:17:25;;;;;;;16.33;2.58;;;23.10;46.70;;;;;;4879964;29;20060;-68
2021/05/09 10:19:52;;;;;;;3.80;1.98;;;22.60;43.90;;;;;;4881040;29;20037;-70
2021/05/09 10:22:32;;;;;;;5.60;2.17;;;22.40;44.50;;;;;;4880655;29;20033;-70
2021/05/09 10:24:59;;;;;;;4.03;2.22;;;22.70;45.00;;;;;;4880852;29;20044;-71
2021/05/09 10:27:41;;;;;;;3.58;1.83;;;23.00;45.00;;;;;;4880805;29;20068;-71
2021/05/09 10:30:12;;;;;;;4.38;2.00;;;23.00;43.80;;;;;;4880360;29;20037;-70
2021/05/09 10:32:38;;;;;;;3.70;1.92;;;22.90;43.00;;;;;;4945737;29;20032;-70
2021/05/09 10:35:08;;;;;;;2.92;1.70;;;23.20;44.30;;;;;;4963305;28;20031;-72
2021/05/09 10:37:45;;;;;;;4.65;2.00;;;23.50;44.30;;;;;;4958244;28;20026;-68
2021/05/09 10:40:23;;;;;;;4.40;1.95;;;23.50;44.40;;;;;;4974965;28;20077;-67
2021/05/09 10:43:02;;;;;;;4.75;1.90;;;23.70;43.50;;;;;;4975025;28;20077;-67
2021/05/09 10:45:34;;;;;;;6.50;2.10;;;23.40;43.80;;;;;;4974857;28;20034;-68
2021/05/09 10:48:15;;;;;;;4.65;2.10;;;23.30;44.90;;;;;;4974851;28;20023;-68
2021/05/09 10:50:46;;;;;;;5.18;2.28;;;23.80;46.00;;;;;;4974879;28;20023;-67
2021/05/09 10:53:31;;;;;;;3.22;1.70;;;23.60;44.60;;;;;;4975201;28;20118;-69
2021/05/09 10:56:02;;;;;;;3.67;1.80;;;24.10;40.60;;;;;;4978340;28;20019;-69
2021/05/09 10:58:46;;;;;;;4.38;1.80;;;23.80;41.00;;;;;;4978151;28;20031;-70
2021/05/09 11:01:20;;;;;;;5.85;1.98;;;23.90;43.10;;;;;;4977370;28;20026;-70
2021/05/09 11:03:57;;;;;;;3.08;1.50;;;23.80;40.90;;;;;;4977452;28;20375;-71
2021/05/09 11:06:26;;;;;;;5.40;1.98;;;23.80;39.90;;;;;;4959389;28;20042;-71
2021/05/09 11:09:11;;;;;;;3.72;1.90;;;23.80;40.70;;;;;;4959874;28;20478;-69
2021/05/09 11:11:37;;;;;;;2.65;1.65;;;23.80;40.80;;;;;;4976869;28;20027;-70
2021/05/09 11:14:05;;;;;;;2.85;1.52;;;23.90;39.80;;;;;;4976398;28;20054;-70
2021/05/09 11:16:42;;;;;;;4.45;2.25;;;23.80;40.70;;;;;;4976461;28;20026;-70
2021/05/09 11:19:13;;;;;;;4.68;1.80;;;23.70;41.20;;;;;;4976508;28;20481;-70
2021/05/09 11:21:51;;;;;;;3.08;1.90;;;24.10;42.20;;;;;;4976861;28;20015;-70
2021/05/09 11:24:25;;;;;;;4.82;2.00;;;24.10;41.60;;;;;;4976521;28;20030;-69
2021/05/09 11:26:56;;;;;;;3.00;1.70;;;24.30;41.50;;;;;;4976338;28;20074;-70
2021/05/09 11:29:26;;;;;;;2.85;1.70;;;24.50;41.10;;;;;;4976250;28;20031;-70
2021/05/09 11:32:05;;;;;;;2.30;1.50;;;24.70;43.60;;;;;;4976349;28;20023;-70
2021/05/09 11:34:31;;;;;;;2.78;1.60;;;24.80;42.80;;;;;;4976174;28;20520;-68
2021/05/09 11:36:58;;;;;;;4.18;1.90;;;25.00;41.10;;;;;;4958966;28;20102;-68
2021/05/09 11:39:38;;;;;;;3.67;2.33;;;24.80;41.10;;;;;;4976420;28;20053;-69
2021/05/09 11:42:09;;;;;;;4.55;1.80;;;24.90;41.30;;;;;;4976313;28;20019;-67
2021/05/09 11:44:37;;;;;;;4.63;1.80;;;;;;;;;;4976064;28;20027;-68
2021/05/09 11:47:06;;;;;;;4.22;1.98;;;25.60;43.30;;;;;;4975966;28;20035;-70
2021/05/09 11:49:34;;;;;;;4.40;2.20;;;25.60;41.20;;;;;;4976235;28;20439;-67
2021/05/09 11:52:07;;;;;;;3.88;1.65;;;25.30;42.90;;;;;;4976036;28;20022;-70
2021/05/09 11:54:36;;;;;;;4.55;1.98;;;25.20;38.70;;;;;;4975555;28;20054;-70
2021/05/09 11:57:09;;;;;;;5.38;2.00;;;25.40;40.30;;;;;;4976095;28;20033;-70
2021/05/09 11:59:37;;;;;;;4.80;2.00;;;25.40;38.90;;;;;;4975974;28;20070;-71
2021/05/09 12:02:21;;;;;;;3.20;1.80;;;25.10;38.80;;;;;;4975207;28;20485;-68
2021/05/09 12:04:52;;;;;;;3.63;2.03;;;25.00;37.00;;;;;;4975687;28;20110;-71
2021/05/09 12:07:51;;;;;;;4.20;1.80;;;25.30;42.20;;;;;;4975717;28;20046;-71
2021/05/09 12:10:24;;;;;;;4.55;1.70;;;25.70;41.60;;;;;;4971131;28;20038;-68
2021/05/09 12:13:09;;;;;;;3.85;2.03;;;25.70;40.10;;;;;;4975769;28;20176;-70
2021/05/09 12:15:40;;;;;;;3.25;1.75;;;25.70;40.80;;;;;;4975906;28;20086;-67
2021/05/09 12:18:07;;;;;;;4.75;2.05;;;25.20;40.70;;;;;;4975346;28;20023;-67
2021/05/09 12:20:36;;;;;;;6.20;4.38;;;25.40;40.80;;;;;;4975522;28;20030;-68
2021/05/09 12:23:06;;;;;;;7.13;3.17;;;25.30;42.10;;;;;;4975479;28;20101;-70
2021/05/09 12:25:43;;;;;;;7.82;5.07;;;25.10;40.10;;;;;;4975338;28;20023;-69
2021/05/09 12:28:40;;;;;;;4.38;2.15;;;25.00;41.80;;;;;;4975671;28;20046;-67
2021/05/09 12:31:11;;;;;;;2.33;1.70;;;25.30;41.10;;;;;;4958242;28;20058;-67
2021/05/09 12:33:37;;;;;;;5.40;2.10;;;25.10;39.60;;;;;;4975735;28;20027;-69
2021/05/09 12:36:22;;;;;;;4.97;2.10;;;24.80;38.20;;;;;;4975187;28;20023;-71
2021/05/09 12:38:48;;;;;;;4.88;1.70;;;25.20;39.80;;;;;;4975218;28;20026;-70
2021/05/09 12:41:16;;;;;;;4.00;1.75;;;25.30;39.50;;;;;;4957750;28;20150;-69
2021/05/09 12:43:48;;;;;;;4.72;2.10;;;25.40;41.30;;;;;;4975216;28;20041;-68
2021/05/09 12:46:52;;;;;;;3.25;1.50;;;25.30;39.90;;;;;;4967412;28;20110;-67
2021/05/09 12:49:31;;;;;;;4.90;1.92;;;25.90;49.00;;;;;;4887166;29;20051;-68
2021/05/09 12:52:06;;;;;;;4.32;1.75;;;25.80;41.80;;;;;;4885425;29;20041;-67
2021/05/09 12:54:39;;;;;;;5.57;1.70;;;26.10;41.30;;;;;;4878523;29;20162;-68